sensor_id;sensor_type;location;lat;lon;timestamp;P1;durP1;ratioP1;P2;durP2;ratioP2
36725;SDS011;44936;52.086;5.150;2023-09-07T00:02:19;2.80;;;1.90;;
36725;SDS011;44936;52.086;5.150;2023-09-07T00:04:44;4.25;;;2.00;;
36725;SDS011;44936;52.086;5.150;2023-09-07T00:07:10;4.55;;;2.17;;
36725;SDS011;44936;52.086;5.150;2023-09-07T00:09:35;4.40;;;1.98;;
36725;SDS011;44936;52.086;5.150;2023-09-07T00:12:02;3.30;;;2.00;;
36725;SDS011;44936;52.086;5.150;2023-09-07T00:14:27;2.85;;;1.92;;
36725;SDS011;44936;52.086;5.150;2023-09-07T00:16:53;7.40;;;2.05;;
36725;SDS011;44936;52.086;5.150;2023-09-07T00:19:18;2.92;;;1.90;;
36725;SDS011;44936;52.086;5.150;2023-09-07T00:21:43;3.85;;;2.10;;
36725;SDS011;44936;52.086;5.150;2023-09-07T00:24:09;4.60;;;2.10;;
36725;SDS011;44936;52.086;5.150;2023-09-07T00:26:35;3.60;;;2.25;;
36725;SDS011;44936;52.086;5.150;2023-09-07T00:29:00;2.28;;;1.33;;
36725;SDS011;44936;52.086;5.150;2023-09-07T00:31:26;4.72;;;2.33;;
36725;SDS011;44936;52.086;5.150;2023-09-07T00:33:51;3.65;;;1.73;;
36725;SDS011;44936;52.086;5.150;2023-09-07T00:36:17;3.50;;;1.92;;
36725;SDS011;44936;52.086;5.150;2023-09-07T00:38:43;2.75;;;1.90;;
36725;SDS011;44936;52.086;5.150;2023-09-07T00:41:08;3.72;;;1.90;;
36725;SDS011;44936;52.086;5.150;2023-09-07T00:43:34;2.38;;;1.80;;
36725;SDS011;44936;52.086;5.150;2023-09-07T00:45:59;2.92;;;1.80;;
36725;SDS011;44936;52.086;5.150;2023-09-07T00:48:24;3.20;;;1.90;;
36725;SDS011;44936;52.086;5.150;2023-09-07T00:50:50;2.90;;;2.05;;
36725;SDS011;44936;52.086;5.150;2023-09-07T00:53:15;3.60;;;1.80;;
36725;SDS011;44936;52.086;5.150;2023-09-07T00:55:42;4.28;;;2.38;;
36725;SDS011;44936;52.086;5.150;2023-09-07T00:58:09;4.15;;;1.73;;
36725;SDS011;44936;52.086;5.150;2023-09-07T01:00:36;2.80;;;1.80;;
36725;SDS011;44936;52.086;5.150;2023-09-07T01:03:02;3.92;;;1.85;;
36725;SDS011;44936;52.086;5.150;2023-09-07T01:05:39;3.08;;;2.00;;
36725;SDS011;44936;52.086;5.150;2023-09-07T01:08:16;3.03;;;1.80;;
36725;SDS011;44936;52.086;5.150;2023-09-07T01:10:49;4.72;;;1.85;;
36725;SDS011;44936;52.086;5.150;2023-09-07T01:13:14;2.70;;;1.70;;
36725;SDS011;44936;52.086;5.150;2023-09-07T01:15:39;3.40;;;2.00;;
36725;SDS011;44936;52.086;5.150;2023-09-07T01:18:05;4.10;;;2.10;;
36725;SDS011;44936;52.086;5.150;2023-09-07T01:20:33;3.08;;;1.80;;
36725;SDS011;44936;52.086;5.150;2023-09-07T01:23:01;3.00;;;1.75;;
36725;SDS011;44936;52.086;5.150;2023-09-07T01:25:28;4.38;;;2.28;;
36725;SDS011;44936;52.086;5.150;2023-09-07T01:27:53;4.80;;;2.10;;
36725;SDS011;44936;52.086;5.150;2023-09-07T01:30:19;3.80;;;2.03;;
36725;SDS011;44936;52.086;5.150;2023-09-07T01:32:45;4.65;;;1.92;;
36725;SDS011;44936;52.086;5.150;2023-09-07T01:35:10;4.05;;;1.90;;
36725;SDS011;44936;52.086;5.150;2023-09-07T01:37:37;3.58;;;2.08;;
36725;SDS011;44936;52.086;5.150;2023-09-07T01:40:03;4.80;;;2.10;;
36725;SDS011;44936;52.086;5.150;2023-09-07T01:42:32;4.40;;;2.25;;
36725;SDS011;44936;52.086;5.150;2023-09-07T01:44:58;3.10;;;1.90;;
36725;SDS011;44936;52.086;5.150;2023-09-07T01:47:23;3.63;;;1.85;;
36725;SDS011;44936;52.086;5.150;2023-09-07T01:49:49;2.92;;;1.90;;
36725;SDS011;44936;52.086;5.150;2023-09-07T01:52:14;4.90;;;2.35;;
36725;SDS011;44936;52.086;5.150;2023-09-07T01:54:39;3.03;;;1.60;;
36725;SDS011;44936;52.086;5.150;2023-09-07T01:57:05;2.80;;;1.95;;
36725;SDS011;44936;52.086;5.150;2023-09-07T01:59:30;3.90;;;2.17;;
36725;SDS011;44936;52.086;5.150;2023-09-07T02:01:55;3.63;;;2.35;;
36725;SDS011;44936;52.086;5.150;2023-09-07T02:04:21;7.28;;;2.17;;
36725;SDS011;44936;52.086;5.150;2023-09-07T02:06:46;2.85;;;1.77;;
36725;SDS011;44936;52.086;5.150;2023-09-07T02:09:11;5.05;;;2.40;;
36725;SDS011;44936;52.086;5.150;2023-09-07T02:11:40;3.47;;;2.28;;
36725;SDS011;44936;52.086;5.150;2023-09-07T02:14:06;3.85;;;2.15;;
36725;SDS011;44936;52.086;5.150;2023-09-07T02:16:31;5.80;;;2.85;;
36725;SDS011;44936;52.086;5.150;2023-09-07T02:19:04;3.97;;;1.98;;
36725;SDS011;44936;52.086;5.150;2023-09-07T02:21:31;4.18;;;2.20;;
36725;SDS011;44936;52.086;5.150;2023-09-07T02:23:57;3.42;;;2.20;;
36725;SDS011;44936;52.086;5.150;2023-09-07T02:26:22;4.13;;;2.20;;
36725;SDS011;44936;52.086;5.150;2023-09-07T02:28:48;4.05;;;2.33;;
36725;SDS011;44936;52.086;5.150;2023-09-07T02:31:13;5.82;;;2.05;;
36725;SDS011;44936;52.086;5.150;2023-09-07T02:33:39;5.60;;;2.50;;
36725;SDS011;44936;52.086;5.150;2023-09-07T02:36:04;4.00;;;2.22;;
36725;SDS011;44936;52.086;5.150;2023-09-07T02:38:29;4.20;;;2.10;;
36725;SDS011;44936;52.086;5.150;2023-09-07T02:40:55;4.63;;;2.20;;
36725;SDS011;44936;52.086;5.150;2023-09-07T02:43:21;3.55;;;1.90;;
36725;SDS011;44936;52.086;5.150;2023-09-07T02:45:48;6.22;;;2.20;;
36725;SDS011;44936;52.086;5.150;2023-09-07T02:48:13;3.20;;;2.33;;
36725;SDS011;44936;52.086;5.150;2023-09-07T02:50:39;4.65;;;2.92;;
36725;SDS011;44936;52.086;5.150;2023-09-07T02:53:04;4.53;;;2.33;;
36725;SDS011;44936;52.086;5.150;2023-09-07T02:55:30;2.80;;;2.08;;
36725;SDS011;44936;52.086;5.150;2023-09-07T02:57:56;4.68;;;2.42;;
36725;SDS011;44936;52.086;5.150;2023-09-07T03:00:21;2.78;;;1.67;;
36725;SDS011;44936;52.086;5.150;2023-09-07T03:02:47;3.08;;;1.92;;
36725;SDS011;44936;52.086;5.150;2023-09-07T03:05:13;4.10;;;2.20;;
36725;SDS011;44936;52.086;5.150;2023-09-07T03:07:41;3.50;;;1.80;;
36725;SDS011;44936;52.086;5.150;2023-09-07T03:10:09;3.78;;;2.22;;
36725;SDS011;44936;52.086;5.150;2023-09-07T03:12:35;4.10;;;2.22;;
36725;SDS011;44936;52.086;5.150;2023-09-07T03:15:00;4.80;;;2.67;;
36725;SDS011;44936;52.086;5.150;2023-09-07T03:17:28;4.95;;;2.40;;
36725;SDS011;44936;52.086;5.150;2023-09-07T03:19:54;4.60;;;2.25;;
36725;SDS011;44936;52.086;5.150;2023-09-07T03:22:19;4.68;;;2.78;;
36725;SDS011;44936;52.086;5.150;2023-09-07T03:24:45;4.10;;;2.10;;
36725;SDS011;44936;52.086;5.150;2023-09-07T03:27:10;5.45;;;2.40;;
36725;SDS011;44936;52.086;5.150;2023-09-07T03:29:36;3.40;;;2.08;;
36725;SDS011;44936;52.086;5.150;2023-09-07T03:32:02;3.53;;;2.13;;
36725;SDS011;44936;52.086;5.150;2023-09-07T03:34:27;5.47;;;2.25;;
36725;SDS011;44936;52.086;5.150;2023-09-07T03:36:53;4.28;;;2.38;;
36725;SDS011;44936;52.086;5.150;2023-09-07T03:39:18;5.00;;;2.10;;
36725;SDS011;44936;52.086;5.150;2023-09-07T03:41:44;3.80;;;2.03;;
36725;SDS011;44936;52.086;5.150;2023-09-07T03:44:10;4.10;;;2.40;;
36725;SDS011;44936;52.086;5.150;2023-09-07T03:46:35;4.15;;;2.42;;
36725;SDS011;44936;52.086;5.150;2023-09-07T03:49:01;4.82;;;2.72;;
36725;SDS011;44936;52.086;5.150;2023-09-07T03:51:27;4.03;;;2.40;;
36725;SDS011;44936;52.086;5.150;2023-09-07T03:53:52;4.68;;;2.50;;
36725;SDS011;44936;52.086;5.150;2023-09-07T03:56:17;3.45;;;1.98;;
36725;SDS011;44936;52.086;5.150;2023-09-07T03:58:43;4.63;;;2.47;;
36725;SDS011;44936;52.086;5.150;2023-09-07T04:01:08;4.43;;;2.45;;
36725;SDS011;44936;52.086;5.150;2023-09-07T04:03:33;5.85;;;1.98;;
36725;SDS011;44936;52.086;5.150;2023-09-07T04:05:59;5.40;;;2.53;;
36725;SDS011;44936;52.086;5.150;2023-09-07T04:08:24;5.22;;;2.50;;
36725;SDS011;44936;52.086;5.150;2023-09-07T04:10:49;7.28;;;2.72;;
36725;SDS011;44936;52.086;5.150;2023-09-07T04:13:15;5.63;;;2.30;;
36725;SDS011;44936;52.086;5.150;2023-09-07T04:15:44;5.18;;;2.33;;
36725;SDS011;44936;52.086;5.150;2023-09-07T04:18:10;5.25;;;2.45;;
36725;SDS011;44936;52.086;5.150;2023-09-07T04:20:38;7.07;;;2.42;;
36725;SDS011;44936;52.086;5.150;2023-09-07T04:23:04;5.88;;;2.65;;
36725;SDS011;44936;52.086;5.150;2023-09-07T04:25:29;4.82;;;2.65;;
36725;SDS011;44936;52.086;5.150;2023-09-07T04:27:55;9.30;;;3.10;;
36725;SDS011;44936;52.086;5.150;2023-09-07T04:30:21;4.30;;;2.42;;
36725;SDS011;44936;52.086;5.150;2023-09-07T04:32:47;6.40;;;2.92;;
36725;SDS011;44936;52.086;5.150;2023-09-07T04:35:12;4.43;;;2.42;;
36725;SDS011;44936;52.086;5.150;2023-09-07T04:37:37;3.97;;;2.40;;
36725;SDS011;44936;52.086;5.150;2023-09-07T04:40:05;4.63;;;2.80;;
36725;SDS011;44936;52.086;5.150;2023-09-07T04:42:31;4.50;;;2.38;;
36725;SDS011;44936;52.086;5.150;2023-09-07T04:44:56;3.83;;;2.20;;
36725;SDS011;44936;52.086;5.150;2023-09-07T04:47:21;5.85;;;2.95;;
36725;SDS011;44936;52.086;5.150;2023-09-07T04:49:50;6.22;;;2.60;;
36725;SDS011;44936;52.086;5.150;2023-09-07T04:52:18;6.18;;;2.83;;
36725;SDS011;44936;52.086;5.150;2023-09-07T04:54:44;4.60;;;2.47;;
36725;SDS011;44936;52.086;5.150;2023-09-07T04:57:10;6.35;;;2.67;;
36725;SDS011;44936;52.086;5.150;2023-09-07T04:59:35;5.68;;;2.75;;
36725;SDS011;44936;52.086;5.150;2023-09-07T05:02:01;5.40;;;2.88;;
36725;SDS011;44936;52.086;5.150;2023-09-07T05:04:26;5.03;;;2.97;;
36725;SDS011;44936;52.086;5.150;2023-09-07T05:06:52;3.80;;;2.42;;
36725;SDS011;44936;52.086;5.150;2023-09-07T05:09:17;6.22;;;2.70;;
36725;SDS011;44936;52.086;5.150;2023-09-07T05:11:45;5.80;;;2.58;;
36725;SDS011;44936;52.086;5.150;2023-09-07T05:14:10;6.55;;;3.00;;
36725;SDS011;44936;52.086;5.150;2023-09-07T05:16:36;5.00;;;2.58;;
36725;SDS011;44936;52.086;5.150;2023-09-07T05:19:01;5.47;;;2.13;;
36725;SDS011;44936;52.086;5.150;2023-09-07T05:21:26;4.95;;;2.65;;
36725;SDS011;44936;52.086;5.150;2023-09-07T05:23:52;4.70;;;2.80;;
36725;SDS011;44936;52.086;5.150;2023-09-07T05:26:21;5.20;;;2.80;;
36725;SDS011;44936;52.086;5.150;2023-09-07T05:28:49;21.50;;;3.83;;
36725;SDS011;44936;52.086;5.150;2023-09-07T05:31:14;8.38;;;3.08;;
36725;SDS011;44936;52.086;5.150;2023-09-07T05:33:40;4.57;;;2.55;;
36725;SDS011;44936;52.086;5.150;2023-09-07T05:36:05;4.32;;;2.42;;
36725;SDS011;44936;52.086;5.150;2023-09-07T05:38:31;7.57;;;2.72;;
36725;SDS011;44936;52.086;5.150;2023-09-07T05:40:56;8.75;;;2.90;;
36725;SDS011;44936;52.086;5.150;2023-09-07T05:43:22;4.95;;;2.90;;
36725;SDS011;44936;52.086;5.150;2023-09-07T05:45:47;4.80;;;2.80;;
36725;SDS011;44936;52.086;5.150;2023-09-07T05:48:13;6.53;;;2.88;;
36725;SDS011;44936;52.086;5.150;2023-09-07T05:50:41;4.47;;;2.53;;
36725;SDS011;44936;52.086;5.150;2023-09-07T05:53:06;6.15;;;2.65;;
36725;SDS011;44936;52.086;5.150;2023-09-07T05:55:32;4.82;;;2.20;;
36725;SDS011;44936;52.086;5.150;2023-09-07T05:57:57;8.32;;;3.10;;
36725;SDS011;44936;52.086;5.150;2023-09-07T06:00:23;5.63;;;2.42;;
36725;SDS011;44936;52.086;5.150;2023-09-07T06:02:49;5.10;;;2.47;;
36725;SDS011;44936;52.086;5.150;2023-09-07T06:05:15;5.85;;;2.80;;
36725;SDS011;44936;52.086;5.150;2023-09-07T06:07:41;5.63;;;2.72;;
36725;SDS011;44936;52.086;5.150;2023-09-07T06:10:06;3.47;;;2.17;;
36725;SDS011;44936;52.086;5.150;2023-09-07T06:12:32;5.00;;;2.78;;
36725;SDS011;44936;52.086;5.150;2023-09-07T06:14:59;4.45;;;2.42;;
36725;SDS011;44936;52.086;5.150;2023-09-07T06:17:25;6.50;;;2.58;;
36725;SDS011;44936;52.086;5.150;2023-09-07T06:19:51;5.85;;;2.55;;
36725;SDS011;44936;52.086;5.150;2023-09-07T06:22:16;5.10;;;2.60;;
36725;SDS011;44936;52.086;5.150;2023-09-07T06:24:41;6.03;;;2.92;;
36725;SDS011;44936;52.086;5.150;2023-09-07T06:27:07;6.07;;;3.28;;
36725;SDS011;44936;52.086;5.150;2023-09-07T06:29:32;4.72;;;2.78;;
36725;SDS011;44936;52.086;5.150;2023-09-07T06:31:57;5.72;;;2.78;;
36725;SDS011;44936;52.086;5.150;2023-09-07T06:34:23;9.35;;;2.75;;
36725;SDS011;44936;52.086;5.150;2023-09-07T06:36:49;6.43;;;3.08;;
36725;SDS011;44936;52.086;5.150;2023-09-07T06:39:14;7.05;;;3.08;;
36725;SDS011;44936;52.086;5.150;2023-09-07T06:41:39;5.50;;;2.75;;
36725;SDS011;44936;52.086;5.150;2023-09-07T06:44:05;7.78;;;3.55;;
36725;SDS011;44936;52.086;5.150;2023-09-07T06:46:30;6.70;;;2.92;;
36725;SDS011;44936;52.086;5.150;2023-09-07T06:48:55;7.10;;;3.20;;
36725;SDS011;44936;52.086;5.150;2023-09-07T06:51:21;8.30;;;2.75;;
36725;SDS011;44936;52.086;5.150;2023-09-07T06:53:46;9.38;;;3.42;;
36725;SDS011;44936;52.086;5.150;2023-09-07T06:56:12;6.57;;;2.70;;
36725;SDS011;44936;52.086;5.150;2023-09-07T06:58:37;6.25;;;2.72;;
36725;SDS011;44936;52.086;5.150;2023-09-07T07:01:03;5.72;;;2.80;;
36725;SDS011;44936;52.086;5.150;2023-09-07T07:03:29;8.55;;;2.95;;
36725;SDS011;44936;52.086;5.150;2023-09-07T07:05:55;7.38;;;3.08;;
36725;SDS011;44936;52.086;5.150;2023-09-07T07:08:22;6.22;;;2.90;;
36725;SDS011;44936;52.086;5.150;2023-09-07T07:10:48;6.65;;;2.90;;
36725;SDS011;44936;52.086;5.150;2023-09-07T07:13:13;7.45;;;2.75;;
36725;SDS011;44936;52.086;5.150;2023-09-07T07:15:38;5.75;;;2.72;;
36725;SDS011;44936;52.086;5.150;2023-09-07T07:18:04;6.07;;;2.47;;
36725;SDS011;44936;52.086;5.150;2023-09-07T07:20:37;4.60;;;2.65;;
36725;SDS011;44936;52.086;5.150;2023-09-07T07:23:04;6.32;;;2.90;;
36725;SDS011;44936;52.086;5.150;2023-09-07T07:25:31;3.78;;;2.22;;
36725;SDS011;44936;52.086;5.150;2023-09-07T07:27:59;4.57;;;2.20;;
36725;SDS011;44936;52.086;5.150;2023-09-07T07:30:28;7.40;;;2.90;;
36725;SDS011;44936;52.086;5.150;2023-09-07T07:32:54;4.40;;;2.35;;
36725;SDS011;44936;52.086;5.150;2023-09-07T07:35:20;4.68;;;2.50;;
36725;SDS011;44936;52.086;5.150;2023-09-07T07:37:45;6.22;;;2.70;;
36725;SDS011;44936;52.086;5.150;2023-09-07T07:40:11;4.63;;;2.28;;
36725;SDS011;44936;52.086;5.150;2023-09-07T07:42:36;4.25;;;2.22;;
36725;SDS011;44936;52.086;5.150;2023-09-07T07:45:01;4.70;;;2.38;;
36725;SDS011;44936;52.086;5.150;2023-09-07T07:47:27;4.57;;;2.35;;
36725;SDS011;44936;52.086;5.150;2023-09-07T07:49:52;4.53;;;2.30;;
36725;SDS011;44936;52.086;5.150;2023-09-07T07:52:18;3.83;;;1.85;;
36725;SDS011;44936;52.086;5.150;2023-09-07T07:54:43;3.67;;;2.10;;
36725;SDS011;44936;52.086;5.150;2023-09-07T07:57:08;4.40;;;2.50;;
36725;SDS011;44936;52.086;5.150;2023-09-07T07:59:34;4.13;;;2.30;;
36725;SDS011;44936;52.086;5.150;2023-09-07T08:01:59;4.20;;;2.10;;
36725;SDS011;44936;52.086;5.150;2023-09-07T08:04:24;3.50;;;2.22;;
36725;SDS011;44936;52.086;5.150;2023-09-07T08:06:50;3.47;;;1.83;;
36725;SDS011;44936;52.086;5.150;2023-09-07T08:09:16;5.80;;;1.83;;
36725;SDS011;44936;52.086;5.150;2023-09-07T08:11:41;3.40;;;1.90;;
36725;SDS011;44936;52.086;5.150;2023-09-07T08:14:07;3.58;;;2.25;;
36725;SDS011;44936;52.086;5.150;2023-09-07T08:16:32;4.45;;;2.05;;
36725;SDS011;44936;52.086;5.150;2023-09-07T08:18:58;4.38;;;2.10;;
36725;SDS011;44936;52.086;5.150;2023-09-07T08:21:23;7.72;;;2.20;;
36725;SDS011;44936;52.086;5.150;2023-09-07T08:23:48;3.40;;;2.00;;
36725;SDS011;44936;52.086;5.150;2023-09-07T08:26:14;4.10;;;1.85;;
36725;SDS011;44936;52.086;5.150;2023-09-07T08:28:40;3.58;;;2.25;;
36725;SDS011;44936;52.086;5.150;2023-09-07T08:31:05;5.00;;;1.90;;
36725;SDS011;44936;52.086;5.150;2023-09-07T08:33:31;3.45;;;1.85;;
36725;SDS011;44936;52.086;5.150;2023-09-07T08:36:00;3.17;;;1.85;;
36725;SDS011;44936;52.086;5.150;2023-09-07T08:38:26;4.30;;;2.10;;
36725;SDS011;44936;52.086;5.150;2023-09-07T08:40:55;4.95;;;2.05;;
36725;SDS011;44936;52.086;5.150;2023-09-07T08:43:26;5.60;;;2.20;;
36725;SDS011;44936;52.086;5.150;2023-09-07T08:45:55;4.07;;;2.13;;
36725;SDS011;44936;52.086;5.150;2023-09-07T08:48:28;3.95;;;2.10;;
36725;SDS011;44936;52.086;5.150;2023-09-07T08:50:55;3.03;;;1.50;;
36725;SDS011;44936;52.086;5.150;2023-09-07T08:53:21;3.03;;;1.88;;
36725;SDS011;44936;52.086;5.150;2023-09-07T08:55:48;3.58;;;1.98;;
36725;SDS011;44936;52.086;5.150;2023-09-07T08:58:14;2.97;;;1.80;;
36725;SDS011;44936;52.086;5.150;2023-09-07T09:00:39;2.45;;;1.67;;
36725;SDS011;44936;52.086;5.150;2023-09-07T09:03:09;2.97;;;1.80;;
36725;SDS011;44936;52.086;5.150;2023-09-07T09:05:35;4.97;;;1.95;;
36725;SDS011;44936;52.086;5.150;2023-09-07T09:08:04;5.00;;;2.13;;
36725;SDS011;44936;52.086;5.150;2023-09-07T09:10:30;2.75;;;2.10;;
36725;SDS011;44936;52.086;5.150;2023-09-07T09:12:55;3.25;;;1.88;;
36725;SDS011;44936;52.086;5.150;2023-09-07T09:15:22;4.45;;;2.10;;
36725;SDS011;44936;52.086;5.150;2023-09-07T09:17:47;5.55;;;2.00;;
36725;SDS011;44936;52.086;5.150;2023-09-07T09:20:25;2.90;;;1.63;;
36725;SDS011;44936;52.086;5.150;2023-09-07T09:22:54;2.75;;;1.60;;
36725;SDS011;44936;52.086;5.150;2023-09-07T09:25:20;2.25;;;1.67;;
36725;SDS011;44936;52.086;5.150;2023-09-07T09:27:46;3.28;;;2.00;;
36725;SDS011;44936;52.086;5.150;2023-09-07T09:30:13;2.92;;;1.90;;
36725;SDS011;44936;52.086;5.150;2023-09-07T09:32:40;2.88;;;1.70;;
36725;SDS011;44936;52.086;5.150;2023-09-07T09:35:07;3.38;;;1.70;;
36725;SDS011;44936;52.086;5.150;2023-09-07T09:37:34;3.42;;;1.42;;
36725;SDS011;44936;52.086;5.150;2023-09-07T09:40:08;4.00;;;1.58;;
36725;SDS011;44936;52.086;5.150;2023-09-07T09:42:35;3.20;;;1.98;;
36725;SDS011;44936;52.086;5.150;2023-09-07T09:45:01;3.47;;;1.77;;
36725;SDS011;44936;52.086;5.150;2023-09-07T09:47:28;4.05;;;2.22;;
36725;SDS011;44936;52.086;5.150;2023-09-07T09:49:56;3.35;;;1.90;;
36725;SDS011;44936;52.086;5.150;2023-09-07T09:52:23;3.33;;;1.80;;
36725;SDS011;44936;52.086;5.150;2023-09-07T09:54:49;6.22;;;1.80;;
36725;SDS011;44936;52.086;5.150;2023-09-07T09:57:16;2.38;;;1.60;;
36725;SDS011;44936;52.086;5.150;2023-09-07T09:59:41;2.97;;;1.90;;
36725;SDS011;44936;52.086;5.150;2023-09-07T10:02:09;3.75;;;1.83;;
36725;SDS011;44936;52.086;5.150;2023-09-07T10:04:35;2.17;;;1.50;;
36725;SDS011;44936;52.086;5.150;2023-09-07T10:07:01;6.95;;;2.20;;
36725;SDS011;44936;52.086;5.150;2023-09-07T10:09:31;3.47;;;1.85;;
36725;SDS011;44936;52.086;5.150;2023-09-07T10:11:58;3.67;;;1.95;;
36725;SDS011;44936;52.086;5.150;2023-09-07T10:14:25;3.70;;;2.13;;
36725;SDS011;44936;52.086;5.150;2023-09-07T10:16:51;3.65;;;1.92;;
36725;SDS011;44936;52.086;5.150;2023-09-07T10:19:23;3.28;;;1.80;;
36725;SDS011;44936;52.086;5.150;2023-09-07T10:21:50;4.72;;;2.05;;
36725;SDS011;44936;52.086;5.150;2023-09-07T10:27:00;2.63;;;1.70;;
36725;SDS011;44936;52.086;5.150;2023-09-07T10:29:45;4.18;;;1.80;;
36725;SDS011;44936;52.086;5.150;2023-09-07T10:34:41;3.28;;;1.85;;
36725;SDS011;44936;52.086;5.150;2023-09-07T10:37:11;3.60;;;1.38;;
36725;SDS011;44936;52.086;5.150;2023-09-07T10:39:42;1.70;;;1.40;;
36725;SDS011;44936;52.086;5.150;2023-09-07T10:42:08;2.08;;;1.42;;
36725;SDS011;44936;52.086;5.150;2023-09-07T10:44:45;2.45;;;1.50;;
36725;SDS011;44936;52.086;5.150;2023-09-07T10:47:10;2.45;;;1.80;;
36725;SDS011;44936;52.086;5.150;2023-09-07T10:49:37;2.70;;;1.73;;
36725;SDS011;44936;52.086;5.150;2023-09-07T10:52:03;3.22;;;1.77;;
36725;SDS011;44936;52.086;5.150;2023-09-07T10:54:29;3.10;;;2.15;;
36725;SDS011;44936;52.086;5.150;2023-09-07T10:56:54;3.35;;;2.15;;
36725;SDS011;44936;52.086;5.150;2023-09-07T10:59:22;4.05;;;2.10;;
36725;SDS011;44936;52.086;5.150;2023-09-07T11:01:48;4.15;;;2.10;;
36725;SDS011;44936;52.086;5.150;2023-09-07T11:04:14;3.35;;;1.60;;
36725;SDS011;44936;52.086;5.150;2023-09-07T11:06:43;2.03;;;1.60;;
36725;SDS011;44936;52.086;5.150;2023-09-07T11:09:09;2.45;;;1.65;;
36725;SDS011;44936;52.086;5.150;2023-09-07T11:11:35;2.58;;;1.67;;
36725;SDS011;44936;52.086;5.150;2023-09-07T11:14:02;1.98;;;1.52;;
36725;SDS011;44936;52.086;5.150;2023-09-07T11:16:29;4.75;;;1.77;;
36725;SDS011;44936;52.086;5.150;2023-09-07T11:18:55;3.45;;;1.70;;
36725;SDS011;44936;52.086;5.150;2023-09-07T11:21:21;2.72;;;2.03;;
36725;SDS011;44936;52.086;5.150;2023-09-07T11:23:47;4.80;;;1.65;;
36725;SDS011;44936;52.086;5.150;2023-09-07T11:26:14;3.53;;;1.98;;
36725;SDS011;44936;52.086;5.150;2023-09-07T11:28:42;3.17;;;1.80;;
36725;SDS011;44936;52.086;5.150;2023-09-07T11:31:10;2.05;;;1.48;;
36725;SDS011;44936;52.086;5.150;2023-09-07T11:33:35;1.58;;;1.25;;
36725;SDS011;44936;52.086;5.150;2023-09-07T11:36:02;3.60;;;1.65;;
36725;SDS011;44936;52.086;5.150;2023-09-07T11:38:29;2.65;;;1.63;;
36725;SDS011;44936;52.086;5.150;2023-09-07T11:41:00;2.33;;;1.58;;
36725;SDS011;44936;52.086;5.150;2023-09-07T11:43:25;3.92;;;2.30;;
36725;SDS011;44936;52.086;5.150;2023-09-07T11:45:50;3.92;;;1.60;;
36725;SDS011;44936;52.086;5.150;2023-09-07T11:48:16;2.45;;;1.50;;
36725;SDS011;44936;52.086;5.150;2023-09-07T11:50:42;3.10;;;1.63;;
36725;SDS011;44936;52.086;5.150;2023-09-07T11:53:08;2.85;;;2.10;;
36725;SDS011;44936;52.086;5.150;2023-09-07T11:55:33;2.03;;;1.80;;
36725;SDS011;44936;52.086;5.150;2023-09-07T11:58:00;4.25;;;1.75;;
36725;SDS011;44936;52.086;5.150;2023-09-07T12:00:29;3.00;;;1.60;;
36725;SDS011;44936;52.086;5.150;2023-09-07T12:02:56;3.10;;;1.90;;
36725;SDS011;44936;52.086;5.150;2023-09-07T12:05:21;2.20;;;1.60;;
36725;SDS011;44936;52.086;5.150;2023-09-07T12:07:46;4.03;;;2.20;;
36725;SDS011;44936;52.086;5.150;2023-09-07T12:10:12;3.05;;;1.63;;
36725;SDS011;44936;52.086;5.150;2023-09-07T12:12:41;2.63;;;1.95;;
36725;SDS011;44936;52.086;5.150;2023-09-07T12:15:08;3.65;;;2.00;;
36725;SDS011;44936;52.086;5.150;2023-09-07T12:17:36;3.05;;;1.95;;
36725;SDS011;44936;52.086;5.150;2023-09-07T12:20:01;4.03;;;1.80;;
36725;SDS011;44936;52.086;5.150;2023-09-07T12:22:28;4.80;;;2.33;;
36725;SDS011;44936;52.086;5.150;2023-09-07T12:24:53;3.25;;;2.00;;
36725;SDS011;44936;52.086;5.150;2023-09-07T12:27:19;3.20;;;1.77;;
36725;SDS011;44936;52.086;5.150;2023-09-07T12:29:44;2.65;;;1.88;;
36725;SDS011;44936;52.086;5.150;2023-09-07T12:32:10;2.92;;;2.05;;
36725;SDS011;44936;52.086;5.150;2023-09-07T12:34:36;2.50;;;1.63;;
36725;SDS011;44936;52.086;5.150;2023-09-07T12:37:01;3.35;;;2.20;;
36725;SDS011;44936;52.086;5.150;2023-09-07T12:39:29;3.47;;;1.83;;
36725;SDS011;44936;52.086;5.150;2023-09-07T12:41:55;3.10;;;1.70;;
36725;SDS011;44936;52.086;5.150;2023-09-07T12:44:20;3.08;;;1.70;;
36725;SDS011;44936;52.086;5.150;2023-09-07T12:46:46;2.80;;;2.05;;
36725;SDS011;44936;52.086;5.150;2023-09-07T12:49:11;2.13;;;1.58;;
36725;SDS011;44936;52.086;5.150;2023-09-07T12:51:36;2.25;;;1.50;;
36725;SDS011;44936;52.086;5.150;2023-09-07T12:54:02;3.05;;;1.63;;
36725;SDS011;44936;52.086;5.150;2023-09-07T12:56:27;3.00;;;1.63;;
36725;SDS011;44936;52.086;5.150;2023-09-07T12:58:53;4.05;;;1.98;;
36725;SDS011;44936;52.086;5.150;2023-09-07T13:01:19;4.18;;;2.13;;
36725;SDS011;44936;52.086;5.150;2023-09-07T13:03:44;3.95;;;1.92;;
36725;SDS011;44936;52.086;5.150;2023-09-07T13:06:10;2.55;;;1.67;;
36725;SDS011;44936;52.086;5.150;2023-09-07T13:08:35;3.40;;;1.67;;
36725;SDS011;44936;52.086;5.150;2023-09-07T13:11:01;3.55;;;1.90;;
36725;SDS011;44936;52.086;5.150;2023-09-07T13:13:26;2.80;;;1.63;;
36725;SDS011;44936;52.086;5.150;2023-09-07T13:15:54;3.40;;;1.88;;
36725;SDS011;44936;52.086;5.150;2023-09-07T13:18:21;4.85;;;2.28;;
36725;SDS011;44936;52.086;5.150;2023-09-07T13:20:46;4.13;;;1.75;;
36725;SDS011;44936;52.086;5.150;2023-09-07T13:23:13;3.95;;;1.98;;
36725;SDS011;44936;52.086;5.150;2023-09-07T13:25:38;2.13;;;1.90;;
36725;SDS011;44936;52.086;5.150;2023-09-07T13:28:04;2.20;;;1.70;;
36725;SDS011;44936;52.086;5.150;2023-09-07T13:30:29;4.63;;;2.15;;
36725;SDS011;44936;52.086;5.150;2023-09-07T13:32:55;3.20;;;1.90;;
36725;SDS011;44936;52.086;5.150;2023-09-07T13:35:20;2.50;;;1.88;;
36725;SDS011;44936;52.086;5.150;2023-09-07T13:37:46;3.63;;;1.77;;
36725;SDS011;44936;52.086;5.150;2023-09-07T13:40:11;3.47;;;1.90;;
36725;SDS011;44936;52.086;5.150;2023-09-07T13:42:38;3.30;;;1.88;;
36725;SDS011;44936;52.086;5.150;2023-09-07T13:45:04;4.20;;;2.08;;
36725;SDS011;44936;52.086;5.150;2023-09-07T13:47:30;3.30;;;2.08;;
36725;SDS011;44936;52.086;5.150;2023-09-07T13:49:55;3.47;;;1.98;;
36725;SDS011;44936;52.086;5.150;2023-09-07T13:52:20;3.35;;;2.00;;
36725;SDS011;44936;52.086;5.150;2023-09-07T13:54:46;3.42;;;2.17;;
36725;SDS011;44936;52.086;5.150;2023-09-07T13:57:11;3.20;;;1.70;;
36725;SDS011;44936;52.086;5.150;2023-09-07T13:59:36;3.38;;;2.00;;
36725;SDS011;44936;52.086;5.150;2023-09-07T14:02:02;2.90;;;1.90;;
36725;SDS011;44936;52.086;5.150;2023-09-07T14:04:27;3.55;;;1.80;;
36725;SDS011;44936;52.086;5.150;2023-09-07T14:06:53;2.40;;;1.73;;
36725;SDS011;44936;52.086;5.150;2023-09-07T14:09:19;1.80;;;1.60;;
36725;SDS011;44936;52.086;5.150;2023-09-07T14:11:44;2.60;;;1.70;;
36725;SDS011;44936;52.086;5.150;2023-09-07T14:14:10;3.20;;;1.73;;
36725;SDS011;44936;52.086;5.150;2023-09-07T14:16:35;4.07;;;2.17;;
36725;SDS011;44936;52.086;5.150;2023-09-07T14:19:01;2.83;;;1.58;;
36725;SDS011;44936;52.086;5.150;2023-09-07T14:21:26;3.53;;;1.70;;
36725;SDS011;44936;52.086;5.150;2023-09-07T14:23:52;6.93;;;1.90;;
36725;SDS011;44936;52.086;5.150;2023-09-07T14:26:17;2.92;;;2.00;;
36725;SDS011;44936;52.086;5.150;2023-09-07T14:28:43;3.65;;;2.13;;
36725;SDS011;44936;52.086;5.150;2023-09-07T14:31:08;2.80;;;1.67;;
36725;SDS011;44936;52.086;5.150;2023-09-07T14:33:34;2.17;;;1.55;;
36725;SDS011;44936;52.086;5.150;2023-09-07T14:36:03;4.30;;;1.92;;
36725;SDS011;44936;52.086;5.150;2023-09-07T14:38:29;3.20;;;1.83;;
36725;SDS011;44936;52.086;5.150;2023-09-07T14:40:55;3.38;;;1.95;;
36725;SDS011;44936;52.086;5.150;2023-09-07T14:43:21;2.05;;;1.50;;
36725;SDS011;44936;52.086;5.150;2023-09-07T14:45:48;4.60;;;2.10;;
36725;SDS011;44936;52.086;5.150;2023-09-07T14:48:13;3.78;;;2.10;;